sensor_id;sensor_type;location;lat;lon;timestamp;temperature;humidity
5848;DHT22;8756;49.29324300;8.70599800;2022-12-29T00:02:17;8.30;99.90
5848;DHT22;8756;49.29324300;8.70599800;2022-12-29T00:04:43;8.40;99.90
5848;DHT22;8756;49.29324300;8.70599800;2022-12-29T00:07:09;8.40;99.90
5848;DHT22;8756;49.29324300;8.70599800;2022-12-29T00:09:35;8.40;99.90
5848;DHT22;8756;49.29324300;8.70599800;2022-12-29T00:12:02;8.40;99.90
5848;DHT22;8756;49.29324300;8.70599800;2022-12-29T00:14:29;8.40;99.90
5848;DHT22;8756;49.29324300;8.70599800;2022-12-29T00:17:14;8.40;99.90
5848;DHT22;8756;49.29324300;8.70599800;2022-12-29T00:19:40;8.40;99.90
5848;DHT22;8756;49.29324300;8.70599800;2022-12-29T00:22:25;8.40;99.90
5848;DHT22;8756;49.29324300;8.70599800;2022-12-29T00:25:10;8.50;99.90
5848;DHT22;8756;49.29324300;8.70599800;2022-12-29T00:27:55;8.50;99.90
5848;DHT22;8756;49.29324300;8.70599800;2022-12-29T00:30:39;8.60;99.90
5848;DHT22;8756;49.29324300;8.70599800;2022-12-29T00:33:31;8.70;99.90
5848;DHT22;8756;49.29324300;8.70599800;2022-12-29T00:36:30;8.70;99.90
5848;DHT22;8756;49.29324300;8.70599800;2022-12-29T00:39:07;8.80;99.90
5848;DHT22;8756;49.29324300;8.70599800;2022-12-29T00:41:54;8.90;99.90
5848;DHT22;8756;49.29324300;8.70599800;2022-12-29T00:44:38;8.90;99.90
5848;DHT22;8756;49.29324300;8.70599800;2022-12-29T00:47:04;9.00;99.90
5848;DHT22;8756;49.29324300;8.70599800;2022-12-29T00:49:30;9.00;99.90
5848;DHT22;8756;49.29324300;8.70599800;2022-12-29T00:52:03;9.10;99.90
5848;DHT22;8756;49.29324300;8.70599800;2022-12-29T00:54:32;9.10;99.90
5848;DHT22;8756;49.29324300;8.70599800;2022-12-29T00:56:59;9.10;99.90
5848;DHT22;8756;49.29324300;8.70599800;2022-12-29T00:59:25;9.20;99.90
5848;DHT22;8756;49.29324300;8.70599800;2022-12-29T01:01:52;9.20;99.90
5848;DHT22;8756;49.29324300;8.70599800;2022-12-29T01:04:20;9.20;99.90
5848;DHT22;8756;49.29324300;8.70599800;2022-12-29T01:06:48;9.20;99.90
5848;DHT22;8756;49.29324300;8.70599800;2022-12-29T01:09:14;9.20;99.90
5848;DHT22;8756;49.29324300;8.70599800;2022-12-29T01:11:58;9.20;99.90
5848;DHT22;8756;49.29324300;8.70599800;2022-12-29T01:14:26;9.30;99.90
5848;DHT22;8756;49.29324300;8.70599800;2022-12-29T01:16:53;9.30;99.90
5848;DHT22;8756;49.29324300;8.70599800;2022-12-29T01:19:20;9.30;99.90
5848;DHT22;8756;49.29324300;8.70599800;2022-12-29T01:21:48;9.30;99.90
5848;DHT22;8756;49.29324300;8.70599800;2022-12-29T01:24:16;9.40;99.90
5848;DHT22;8756;49.29324300;8.70599800;2022-12-29T01:26:43;9.40;99.90
5848;DHT22;8756;49.29324300;8.70599800;2022-12-29T01:29:09;9.50;99.90
5848;DHT22;8756;49.29324300;8.70599800;2022-12-29T01:31:36;9.50;99.90
5848;DHT22;8756;49.29324300;8.70599800;2022-12-29T01:34:03;9.60;99.90
5848;DHT22;8756;49.29324300;8.70599800;2022-12-29T01:36:29;9.60;99.90
5848;DHT22;8756;49.29324300;8.70599800;2022-12-29T01:38:55;9.60;99.90
5848;DHT22;8756;49.29324300;8.70599800;2022-12-29T01:41:23;9.60;99.90
5848;DHT22;8756;49.29324300;8.70599800;2022-12-29T01:43:53;9.60;99.90
5848;DHT22;8756;49.29324300;8.70599800;2022-12-29T01:46:38;9.60;99.90
5848;DHT22;8756;49.29324300;8.70599800;2022-12-29T01:49:09;9.60;99.90
5848;DHT22;8756;49.29324300;8.70599800;2022-12-29T01:51:53;9.60;99.90
5848;DHT22;8756;49.29324300;8.70599800;2022-12-29T01:54:27;9.60;99.90
5848;DHT22;8756;49.29324300;8.70599800;2022-12-29T01:56:57;9.60;99.90
5848;DHT22;8756;49.29324300;8.70599800;2022-12-29T01:59:51;9.60;99.90
5848;DHT22;8756;49.29324300;8.70599800;2022-12-29T02:02:20;9.60;99.90
5848;DHT22;8756;49.29324300;8.70599800;2022-12-29T02:04:46;9.70;99.90
5848;DHT22;8756;49.29324300;8.70599800;2022-12-29T02:07:17;9.70;99.90
5848;DHT22;8756;49.29324300;8.70599800;2022-12-29T02:09:48;9.70;99.90
5848;DHT22;8756;49.29324300;8.70599800;2022-12-29T02:12:16;9.70;99.90
5848;DHT22;8756;49.29324300;8.70599800;2022-12-29T02:14:43;9.70;99.90
5848;DHT22;8756;49.29324300;8.70599800;2022-12-29T02:20:18;9.70;99.90
5848;DHT22;8756;49.29324300;8.70599800;2022-12-29T02:26:34;9.60;99.90
5848;DHT22;8756;49.29324300;8.70599800;2022-12-29T02:29:58;9.60;99.90
5848;DHT22;8756;49.29324300;8.70599800;2022-12-29T02:32:06;9.60;99.90
5848;DHT22;8756;49.29324300;8.70599800;2022-12-29T02:40:58;9.50;99.90
5848;DHT22;8756;49.29324300;8.70599800;2022-12-29T02:43:55;9.50;99.90
5848;DHT22;8756;49.29324300;8.70599800;2022-12-29T02:46:35;9.50;99.90
5848;DHT22;8756;49.29324300;8.70599800;2022-12-29T02:49:19;9.50;99.90
5848;DHT22;8756;49.29324300;8.70599800;2022-12-29T02:51:59;9.50;99.90
5848;DHT22;8756;49.29324300;8.70599800;2022-12-29T02:54:30;9.50;99.90
5848;DHT22;8756;49.29324300;8.70599800;2022-12-29T02:57:26;9.50;99.90
5848;DHT22;8756;49.29324300;8.70599800;2022-12-29T03:00:01;9.50;99.90
5848;DHT22;8756;49.29324300;8.70599800;2022-12-29T03:02:30;9.40;99.90
5848;DHT22;8756;49.29324300;8.70599800;2022-12-29T03:05:37;9.40;99.90
5848;DHT22;8756;49.29324300;8.70599800;2022-12-29T03:08:27;9.40;99.90
5848;DHT22;8756;49.29324300;8.70599800;2022-12-29T03:11:02;9.40;99.90
5848;DHT22;8756;49.29324300;8.70599800;2022-12-29T03:13:56;9.40;99.90
5848;DHT22;8756;49.29324300;8.70599800;2022-12-29T03:17:14;9.40;99.90
5848;DHT22;8756;49.29324300;8.70599800;2022-12-29T03:19:47;9.40;99.90
5848;DHT22;8756;49.29324300;8.70599800;2022-12-29T03:22:21;9.40;99.90
5848;DHT22;8756;49.29324300;8.70599800;2022-12-29T03:25:10;9.40;99.90
5848;DHT22;8756;49.29324300;8.70599800;2022-12-29T03:27:47;9.50;99.90
5848;DHT22;8756;49.29324300;8.70599800;2022-12-29T03:30:19;9.50;99.90
5848;DHT22;8756;49.29324300;8.70599800;2022-12-29T03:32:54;9.50;99.90
5848;DHT22;8756;49.29324300;8.70599800;2022-12-29T03:35:24;9.50;99.90
5848;DHT22;8756;49.29324300;8.70599800;2022-12-29T03:38:10;9.40;99.90
5848;DHT22;8756;49.29324300;8.70599800;2022-12-29T03:40:47;9.40;99.90
5848;DHT22;8756;49.29324300;8.70599800;2022-12-29T03:43:15;9.50;99.90
5848;DHT22;8756;49.29324300;8.70599800;2022-12-29T03:45:42;9.50;99.90
5848;DHT22;8756;49.29324300;8.70599800;2022-12-29T03:48:08;9.50;99.90
5848;DHT22;8756;49.29324300;8.70599800;2022-12-29T03:50:33;9.40;99.90
5848;DHT22;8756;49.29324300;8.70599800;2022-12-29T03:52:59;9.50;99.90
5848;DHT22;8756;49.29324300;8.70599800;2022-12-29T03:55:25;9.40;99.90
5848;DHT22;8756;49.29324300;8.70599800;2022-12-29T03:57:50;9.50;99.90
5848;DHT22;8756;49.29324300;8.70599800;2022-12-29T04:00:16;9.40;99.90
5848;DHT22;8756;49.29324300;8.70599800;2022-12-29T04:02:42;9.40;99.90
5848;DHT22;8756;49.29324300;8.70599800;2022-12-29T04:05:08;9.40;99.90
5848;DHT22;8756;49.29324300;8.70599800;2022-12-29T04:07:33;9.50;99.90
5848;DHT22;8756;49.29324300;8.70599800;2022-12-29T04:09:59;9.50;99.90
5848;DHT22;8756;49.29324300;8.70599800;2022-12-29T04:12:25;9.50;99.90
5848;DHT22;8756;49.29324300;8.70599800;2022-12-29T04:14:50;9.50;99.90
5848;DHT22;8756;49.29324300;8.70599800;2022-12-29T04:17:16;9.60;99.90
5848;DHT22;8756;49.29324300;8.70599800;2022-12-29T04:19:42;9.60;99.90
5848;DHT22;8756;49.29324300;8.70599800;2022-12-29T04:22:08;9.60;99.90
5848;DHT22;8756;49.29324300;8.70599800;2022-12-29T04:24:33;9.60;99.90
5848;DHT22;8756;49.29324300;8.70599800;2022-12-29T04:26:59;9.60;99.90
5848;DHT22;8756;49.29324300;8.70599800;2022-12-29T04:29:25;9.60;99.90
5848;DHT22;8756;49.29324300;8.70599800;2022-12-29T04:31:50;9.60;99.90
5848;DHT22;8756;49.29324300;8.70599800;2022-12-29T04:34:16;9.70;99.90
5848;DHT22;8756;49.29324300;8.70599800;2022-12-29T04:36:42;9.70;99.90
5848;DHT22;8756;49.29324300;8.70599800;2022-12-29T04:39:07;9.70;99.90
5848;DHT22;8756;49.29324300;8.70599800;2022-12-29T04:41:33;9.70;99.90
5848;DHT22;8756;49.29324300;8.70599800;2022-12-29T04:43:59;9.70;99.90
5848;DHT22;8756;49.29324300;8.70599800;2022-12-29T04:46:24;9.80;99.90
5848;DHT22;8756;49.29324300;8.70599800;2022-12-29T04:48:50;9.80;99.90
5848;DHT22;8756;49.29324300;8.70599800;2022-12-29T04:51:16;9.80;99.90
5848;DHT22;8756;49.29324300;8.70599800;2022-12-29T04:53:41;9.80;99.90
5848;DHT22;8756;49.29324300;8.70599800;2022-12-29T04:56:08;9.80;99.90
5848;DHT22;8756;49.29324300;8.70599800;2022-12-29T04:58:34;9.90;99.90
5848;DHT22;8756;49.29324300;8.70599800;2022-12-29T05:01:01;9.90;99.90
5848;DHT22;8756;49.29324300;8.70599800;2022-12-29T05:03:28;9.90;99.90
5848;DHT22;8756;49.29324300;8.70599800;2022-12-29T05:05:55;9.90;99.90
5848;DHT22;8756;49.29324300;8.70599800;2022-12-29T05:08:21;9.90;99.90
5848;DHT22;8756;49.29324300;8.70599800;2022-12-29T05:10:49;9.90;99.90
5848;DHT22;8756;49.29324300;8.70599800;2022-12-29T05:13:16;9.90;99.90
5848;DHT22;8756;49.29324300;8.70599800;2022-12-29T05:15:50;10.00;99.90
5848;DHT22;8756;49.29324300;8.70599800;2022-12-29T05:18:16;10.00;99.90
5848;DHT22;8756;49.29324300;8.70599800;2022-12-29T05:20:42;10.00;99.90
5848;DHT22;8756;49.29324300;8.70599800;2022-12-29T05:23:08;10.00;99.90
5848;DHT22;8756;49.29324300;8.70599800;2022-12-29T05:25:34;10.10;99.90
5848;DHT22;8756;49.29324300;8.70599800;2022-12-29T05:27:59;10.10;99.90
5848;DHT22;8756;49.29324300;8.70599800;2022-12-29T05:30:25;10.10;99.90
5848;DHT22;8756;49.29324300;8.70599800;2022-12-29T05:32:51;10.20;99.90
5848;DHT22;8756;49.29324300;8.70599800;2022-12-29T05:35:16;10.10;99.90
5848;DHT22;8756;49.29324300;8.70599800;2022-12-29T05:37:42;10.20;99.90
5848;DHT22;8756;49.29324300;8.70599800;2022-12-29T05:40:08;10.20;99.90
5848;DHT22;8756;49.29324300;8.70599800;2022-12-29T05:42:34;10.10;99.90
5848;DHT22;8756;49.29324300;8.70599800;2022-12-29T05:44:59;10.20;99.90
5848;DHT22;8756;49.29324300;8.70599800;2022-12-29T05:47:25;10.20;99.90
5848;DHT22;8756;49.29324300;8.70599800;2022-12-29T05:49:51;10.20;99.90
5848;DHT22;8756;49.29324300;8.70599800;2022-12-29T05:52:17;10.20;99.90
5848;DHT22;8756;49.29324300;8.70599800;2022-12-29T05:54:42;10.20;99.90
5848;DHT22;8756;49.29324300;8.70599800;2022-12-29T05:57:08;10.20;99.90
5848;DHT22;8756;49.29324300;8.70599800;2022-12-29T05:59:35;10.20;99.90
5848;DHT22;8756;49.29324300;8.70599800;2022-12-29T06:02:00;10.20;99.90
5848;DHT22;8756;49.29324300;8.70599800;2022-12-29T06:04:26;10.20;99.90
5848;DHT22;8756;49.29324300;8.70599800;2022-12-29T06:06:52;10.20;99.90
5848;DHT22;8756;49.29324300;8.70599800;2022-12-29T06:09:17;10.30;99.90
5848;DHT22;8756;49.29324300;8.70599800;2022-12-29T06:11:43;10.20;99.90
5848;DHT22;8756;49.29324300;8.70599800;2022-12-29T06:14:09;10.20;99.90
5848;DHT22;8756;49.29324300;8.70599800;2022-12-29T06:16:34;10.20;99.90
5848;DHT22;8756;49.29324300;8.70599800;2022-12-29T06:19:01;10.20;99.90
5848;DHT22;8756;49.29324300;8.70599800;2022-12-29T06:21:27;10.20;99.90
5848;DHT22;8756;49.29324300;8.70599800;2022-12-29T06:23:52;10.20;99.90
5848;DHT22;8756;49.29324300;8.70599800;2022-12-29T06:26:18;10.20;99.90
5848;DHT22;8756;49.29324300;8.70599800;2022-12-29T06:28:44;10.20;99.90
5848;DHT22;8756;49.29324300;8.70599800;2022-12-29T06:31:10;10.20;99.90
5848;DHT22;8756;49.29324300;8.70599800;2022-12-29T06:33:37;10.20;99.90
5848;DHT22;8756;49.29324300;8.70599800;2022-12-29T06:36:03;10.20;99.90
5848;DHT22;8756;49.29324300;8.70599800;2022-12-29T06:38:29;10.20;99.90
5848;DHT22;8756;49.29324300;8.70599800;2022-12-29T06:40:55;10.20;99.90
5848;DHT22;8756;49.29324300;8.70599800;2022-12-29T06:43:21;10.20;99.90
5848;DHT22;8756;49.29324300;8.70599800;2022-12-29T06:45:46;10.20;99.90
5848;DHT22;8756;49.29324300;8.70599800;2022-12-29T06:48:12;10.20;99.90
5848;DHT22;8756;49.29324300;8.70599800;2022-12-29T06:50:38;10.20;99.90
5848;DHT22;8756;49.29324300;8.70599800;2022-12-29T06:53:04;10.30;99.90
5848;DHT22;8756;49.29324300;8.70599800;2022-12-29T06:55:30;10.30;99.90
5848;DHT22;8756;49.29324300;8.70599800;2022-12-29T06:57:57;10.30;99.90
5848;DHT22;8756;49.29324300;8.70599800;2022-12-29T07:00:24;10.30;99.90
5848;DHT22;8756;49.29324300;8.70599800;2022-12-29T07:02:50;10.40;99.90
5848;DHT22;8756;49.29324300;8.70599800;2022-12-29T07:05:16;10.40;99.90
5848;DHT22;8756;49.29324300;8.70599800;2022-12-29T07:07:42;10.40;99.90
5848;DHT22;8756;49.29324300;8.70599800;2022-12-29T07:10:08;10.40;99.90
5848;DHT22;8756;49.29324300;8.70599800;2022-12-29T07:12:34;10.40;99.90
5848;DHT22;8756;49.29324300;8.70599800;2022-12-29T07:14:59;10.40;99.90
5848;DHT22;8756;49.29324300;8.70599800;2022-12-29T07:17:25;10.40;99.90
5848;DHT22;8756;49.29324300;8.70599800;2022-12-29T07:19:51;10.40;99.90
5848;DHT22;8756;49.29324300;8.70599800;2022-12-29T07:22:16;10.40;99.90
5848;DHT22;8756;49.29324300;8.70599800;2022-12-29T07:24:42;10.40;99.90
5848;DHT22;8756;49.29324300;8.70599800;2022-12-29T07:27:08;10.40;99.90
5848;DHT22;8756;49.29324300;8.70599800;2022-12-29T07:29:36;10.50;99.90
5848;DHT22;8756;49.29324300;8.70599800;2022-12-29T07:32:02;10.50;99.90
5848;DHT22;8756;49.29324300;8.70599800;2022-12-29T07:34:28;10.50;99.90
5848;DHT22;8756;49.29324300;8.70599800;2022-12-29T07:36:53;10.50;99.90
5848;DHT22;8756;49.29324300;8.70599800;2022-12-29T07:39:19;10.50;99.90
5848;DHT22;8756;49.29324300;8.70599800;2022-12-29T07:41:45;10.60;99.90
5848;DHT22;8756;49.29324300;8.70599800;2022-12-29T07:44:11;10.60;99.90
5848;DHT22;8756;49.29324300;8.70599800;2022-12-29T07:46:39;10.70;99.90
5848;DHT22;8756;49.29324300;8.70599800;2022-12-29T07:49:05;10.70;99.90
5848;DHT22;8756;49.29324300;8.70599800;2022-12-29T07:51:30;10.70;99.90
5848;DHT22;8756;49.29324300;8.70599800;2022-12-29T07:53:57;10.70;99.90
5848;DHT22;8756;49.29324300;8.70599800;2022-12-29T07:56:25;10.70;99.90
5848;DHT22;8756;49.29324300;8.70599800;2022-12-29T07:58:51;10.60;99.90
5848;DHT22;8756;49.29324300;8.70599800;2022-12-29T08:01:16;10.70;99.90
5848;DHT22;8756;49.29324300;8.70599800;2022-12-29T08:03:42;10.70;99.90
5848;DHT22;8756;49.29324300;8.70599800;2022-12-29T08:06:12;10.70;99.90
5848;DHT22;8756;49.29324300;8.70599800;2022-12-29T08:08:38;10.70;99.90
5848;DHT22;8756;49.29324300;8.70599800;2022-12-29T08:11:03;10.70;99.90
5848;DHT22;8756;49.29324300;8.70599800;2022-12-29T08:13:29;10.70;99.90
5848;DHT22;8756;49.29324300;8.70599800;2022-12-29T08:15:57;10.70;99.90
5848;DHT22;8756;49.29324300;8.70599800;2022-12-29T08:18:24;10.80;99.90
5848;DHT22;8756;49.29324300;8.70599800;2022-12-29T08:20:49;10.80;99.90
5848;DHT22;8756;49.29324300;8.70599800;2022-12-29T08:23:15;10.80;99.90
5848;DHT22;8756;49.29324300;8.70599800;2022-12-29T08:25:41;10.80;99.90
5848;DHT22;8756;49.29324300;8.70599800;2022-12-29T08:31:55;10.80;99.90
5848;DHT22;8756;49.29324300;8.70599800;2022-12-29T08:34:21;10.90;99.90
5848;DHT22;8756;49.29324300;8.70599800;2022-12-29T08:36:47;10.90;99.90
5848;DHT22;8756;49.29324300;8.70599800;2022-12-29T08:39:13;10.90;99.90
5848;DHT22;8756;49.29324300;8.70599800;2022-12-29T08:41:39;10.90;99.90
5848;DHT22;8756;49.29324300;8.70599800;2022-12-29T08:44:04;11.00;99.90
5848;DHT22;8756;49.29324300;8.70599800;2022-12-29T08:46:30;11.00;99.90
5848;DHT22;8756;49.29324300;8.70599800;2022-12-29T08:48:56;11.00;99.90
5848;DHT22;8756;49.29324300;8.70599800;2022-12-29T08:51:22;11.00;99.90
5848;DHT22;8756;49.29324300;8.70599800;2022-12-29T08:53:48;11.00;99.90
5848;DHT22;8756;49.29324300;8.70599800;2022-12-29T08:56:14;11.00;99.90
5848;DHT22;8756;49.29324300;8.70599800;2022-12-29T08:58:39;11.10;99.90
5848;DHT22;8756;49.29324300;8.70599800;2022-12-29T09:01:06;11.00;99.90
5848;DHT22;8756;49.29324300;8.70599800;2022-12-29T09:03:32;11.10;99.90
5848;DHT22;8756;49.29324300;8.70599800;2022-12-29T09:05:58;11.10;99.90
5848;DHT22;8756;49.29324300;8.70599800;2022-12-29T09:08:23;11.10;99.90
5848;DHT22;8756;49.29324300;8.70599800;2022-12-29T09:10:49;11.10;99.90
5848;DHT22;8756;49.29324300;8.70599800;2022-12-29T09:13:15;11.20;99.90
5848;DHT22;8756;49.29324300;8.70599800;2022-12-29T09:15:41;11.20;99.90
5848;DHT22;8756;49.29324300;8.70599800;2022-12-29T09:18:09;11.20;99.90
5848;DHT22;8756;49.29324300;8.70599800;2022-12-29T09:20:35;11.20;99.90
5848;DHT22;8756;49.29324300;8.70599800;2022-12-29T09:23:02;11.20;99.90
5848;DHT22;8756;49.29324300;8.70599800;2022-12-29T09:25:28;11.30;99.90
5848;DHT22;8756;49.29324300;8.70599800;2022-12-29T09:27:55;11.30;99.90
5848;DHT22;8756;49.29324300;8.70599800;2022-12-29T09:30:22;11.30;99.90
5848;DHT22;8756;49.29324300;8.70599800;2022-12-29T09:32:49;11.30;99.90
5848;DHT22;8756;49.29324300;8.70599800;2022-12-29T09:35:15;11.30;99.90
5848;DHT22;8756;49.29324300;8.70599800;2022-12-29T09:37:42;11.30;99.90
5848;DHT22;8756;49.29324300;8.70599800;2022-12-29T09:40:32;11.30;99.90
5848;DHT22;8756;49.29324300;8.70599800;2022-12-29T09:52:14;11.40;99.90
5848;DHT22;8756;49.29324300;8.70599800;2022-12-29T10:00:14;11.40;99.90
5848;DHT22;8756;49.29324300;8.70599800;2022-12-29T10:02:45;11.40;99.90
5848;DHT22;8756;49.29324300;8.70599800;2022-12-29T10:16:20;11.40;99.90
5848;DHT22;8756;49.29324300;8.70599800;2022-12-29T10:24:07;11.40;99.90
5848;DHT22;8756;49.29324300;8.70599800;2022-12-29T10:26:41;11.50;99.90
5848;DHT22;8756;49.29324300;8.70599800;2022-12-29T10:29:42;11.50;99.90
5848;DHT22;8756;49.29324300;8.70599800;2022-12-29T10:32:37;11.40;99.90
5848;DHT22;8756;49.29324300;8.70599800;2022-12-29T10:35:29;11.40;99.90
5848;DHT22;8756;49.29324300;8.70599800;2022-12-29T10:38:24;11.40;99.90
5848;DHT22;8756;49.29324300;8.70599800;2022-12-29T10:43:27;11.30;99.90
5848;DHT22;8756;49.29324300;8.70599800;2022-12-29T10:45:57;11.30;99.90
5848;DHT22;8756;49.29324300;8.70599800;2022-12-29T10:48:31;11.30;99.90
5848;DHT22;8756;49.29324300;8.70599800;2022-12-29T10:51:00;11.30;99.90
5848;DHT22;8756;49.29324300;8.70599800;2022-12-29T10:53:45;11.30;99.90
5848;DHT22;8756;49.29324300;8.70599800;2022-12-29T10:59:08;11.30;99.90
5848;DHT22;8756;49.29324300;8.70599800;2022-12-29T11:02:00;11.40;99.90
5848;DHT22;8756;49.29324300;8.70599800;2022-12-29T11:07:32;11.40;99.90
5848;DHT22;8756;49.29324300;8.70599800;2022-12-29T11:10:18;11.40;99.90
5848;DHT22;8756;49.29324300;8.70599800;2022-12-29T11:13:25;11.40;99.90
5848;DHT22;8756;49.29324300;8.70599800;2022-12-29T11:15:52;11.40;99.90
5848;DHT22;8756;49.29324300;8.70599800;2022-12-29T11:18:22;11.40;99.90
5848;DHT22;8756;49.29324300;8.70599800;2022-12-29T11:20:50;11.40;99.90
5848;DHT22;8756;49.29324300;8.70599800;2022-12-29T11:23:36;11.40;99.90
5848;DHT22;8756;49.29324300;8.70599800;2022-12-29T11:34:11;11.50;99.90
5848;DHT22;8756;49.29324300;8.70599800;2022-12-29T11:36:42;11.50;99.90
5848;DHT22;8756;49.29324300;8.70599800;2022-12-29T11:39:33;11.60;99.90
5848;DHT22;8756;49.29324300;8.70599800;2022-12-29T11:42:01;11.60;99.90
5848;DHT22;8756;49.29324300;8.70599800;2022-12-29T11:44:32;11.70;99.90
5848;DHT22;8756;49.29324300;8.70599800;2022-12-29T11:47:02;11.70;99.90
5848;DHT22;8756;49.29324300;8.70599800;2022-12-29T11:49:31;11.80;99.90
5848;DHT22;8756;49.29324300;8.70599800;2022-12-29T11:51:56;11.80;99.90
5848;DHT22;8756;49.29324300;8.70599800;2022-12-29T11:54:29;11.90;99.90
5848;DHT22;8756;49.29324300;8.70599800;2022-12-29T11:56:58;11.90;99.90
5848;DHT22;8756;49.29324300;8.70599800;2022-12-29T12:01:56;12.00;99.90
5848;DHT22;8756;49.29324300;8.70599800;2022-12-29T12:04:26;12.00;99.90
5848;DHT22;8756;49.29324300;8.70599800;2022-12-29T12:07:14;12.00;99.90
5848;DHT22;8756;49.29324300;8.70599800;2022-12-29T12:09:53;12.10;99.90
5848;DHT22;8756;49.29324300;8.70599800;2022-12-29T12:12:43;12.10;99.90
5848;DHT22;8756;49.29324300;8.70599800;2022-12-29T12:15:22;12.10;99.90
5848;DHT22;8756;49.29324300;8.70599800;2022-12-29T12:18:11;12.10;99.90
5848;DHT22;8756;49.29324300;8.70599800;2022-12-29T12:20:56;12.10;99.90
5848;DHT22;8756;49.29324300;8.70599800;2022-12-29T12:23:32;12.10;99.90
5848;DHT22;8756;49.29324300;8.70599800;2022-12-29T12:26:20;12.10;99.90
5848;DHT22;8756;49.29324300;8.70599800;2022-12-29T12:28:58;12.10;99.90
5848;DHT22;8756;49.29324300;8.70599800;2022-12-29T12:31:52;12.10;99.90
5848;DHT22;8756;49.29324300;8.70599800;2022-12-29T12:34:27;12.10;99.90
5848;DHT22;8756;49.29324300;8.70599800;2022-12-29T12:37:07;12.10;99.90
5848;DHT22;8756;49.29324300;8.70599800;2022-12-29T12:43:05;12.10;99.90
5848;DHT22;8756;49.29324300;8.70599800;2022-12-29T12:45:27;12.10;99.90
5848;DHT22;8756;49.29324300;8.70599800;2022-12-29T12:54:09;12.30;99.90
5848;DHT22;8756;49.29324300;8.70599800;2022-12-29T13:13:45;12.20;99.90
5848;DHT22;8756;49.29324300;8.70599800;2022-12-29T13:16:54;12.10;99.90
5848;DHT22;8756;49.29324300;8.70599800;2022-12-29T13:19:51;12.10;99.90
5848;DHT22;8756;49.29324300;8.70599800;2022-12-29T13:22:38;12.00;99.90
5848;DHT22;8756;49.29324300;8.70599800;2022-12-29T13:25:35;11.80;99.90
5848;DHT22;8756;49.29324300;8.70599800;2022-12-29T13:28:50;11.70;99.90
5848;DHT22;8756;49.29324300;8.70599800;2022-12-29T13:31:39;11.60;99.90
5848;DHT22;8756;49.29324300;8.70599800;2022-12-29T13:36:59;11.50;99.90
5848;DHT22;8756;49.29324300;8.70599800;2022-12-29T13:39:48;11.50;99.90
5848;DHT22;8756;49.29324300;8.70599800;2022-12-29T13:42:18;11.50;99.90
5848;DHT22;8756;49.29324300;8.70599800;2022-12-29T13:47:42;11.40;99.90
5848;DHT22;8756;49.29324300;8.70599800;2022-12-29T13:50:22;11.40;99.90
5848;DHT22;8756;49.29324300;8.70599800;2022-12-29T14:01:45;11.30;99.90
5848;DHT22;8756;49.29324300;8.70599800;2022-12-29T14:04:28;11.30;99.90
5848;DHT22;8756;49.29324300;8.70599800;2022-12-29T14:07:13;11.30;99.90
5848;DHT22;8756;49.29324300;8.70599800;2022-12-29T14:09:57;11.30;99.90
5848;DHT22;8756;49.29324300;8.70599800;2022-12-29T14:12:32;11.30;99.90
5848;DHT22;8756;49.29324300;8.70599800;2022-12-29T14:15:23;11.30;99.90
5848;DHT22;8756;49.29324300;8.70599800;2022-12-29T14:18:04;11.30;99.90
5848;DHT22;8756;49.29324300;8.70599800;2022-12-29T14:20:37;11.30;99.90
5848;DHT22;8756;49.29324300;8.70599800;2022-12-29T14:25:56;11.40;99.90
5848;DHT22;8756;49.29324300;8.70599800;2022-12-29T14:28:40;11.40;99.90
5848;DHT22;8756;49.29324300;8.70599800;2022-12-29T14:36:56;11.30;99.90
5848;DHT22;8756;49.29324300;8.70599800;2022-12-29T14:39:40;11.30;99.90
5848;DHT22;8756;49.29324300;8.70599800;2022-12-29T14:47:41;11.10;99.90
5848;DHT22;8756;49.29324300;8.70599800;2022-12-29T14:52:53;11.00;99.90
5848;DHT22;8756;49.29324300;8.70599800;2022-12-29T14:56:02;11.10;99.90
5848;DHT22;8756;49.29324300;8.70599800;2022-12-29T14:58:44;11.00;99.90
5848;DHT22;8756;49.29324300;8.70599800;2022-12-29T15:04:00;10.90;99.90
5848;DHT22;8756;49.29324300;8.70599800;2022-12-29T15:06:31;10.80;99.90
5848;DHT22;8756;49.29324300;8.70599800;2022-12-29T15:09:10;10.80;99.90
5848;DHT22;8756;49.29324300;8.70599800;2022-12-29T15:14:38;10.70;99.90
5848;DHT22;8756;49.29324300;8.70599800;2022-12-29T15:17:32;10.60;99.90
5848;DHT22;8756;49.29324300;8.70599800;2022-12-29T15:19:59;10.50;99.90
5848;DHT22;8756;49.29324300;8.70599800;2022-12-29T15:22:45;10.40;99.90
5848;DHT22;8756;49.29324300;8.70599800;2022-12-29T15:25:18;10.40;99.90
5848;DHT22;8756;49.29324300;8.70599800;2022-12-29T15:27:50;10.40;99.90
5848;DHT22;8756;49.29324300;8.70599800;2022-12-29T15:30:17;10.30;99.90
5848;DHT22;8756;49.29324300;8.70599800;2022-12-29T15:32:44;10.30;99.90
5848;DHT22;8756;49.29324300;8.70599800;2022-12-29T15:38:13;10.30;99.90
5848;DHT22;8756;49.29324300;8.70599800;2022-12-29T15:40:43;10.20;99.90
5848;DHT22;8756;49.29324300;8.70599800;2022-12-29T15:43:19;10.20;99.90
5848;DHT22;8756;49.29324300;8.70599800;2022-12-29T15:45:51;10.10;99.90
5848;DHT22;8756;49.29324300;8.70599800;2022-12-29T15:48:22;10.10;99.90
5848;DHT22;8756;49.29324300;8.70599800;2022-12-29T15:50:49;10.10;99.90
5848;DHT22;8756;49.29324300;8.70599800;2022-12-29T15:53:28;10.00;99.90
5848;DHT22;8756;49.29324300;8.70599800;2022-12-29T15:55:58;9.90;99.90
5848;DHT22;8756;49.29324300;8.70599800;2022-12-29T15:58:29;9.90;99.90
5848;DHT22;8756;49.29324300;8.70599800;2022-12-29T16:00:58;9.90;99.90
5848;DHT22;8756;49.29324300;8.70599800;2022-12-29T16:03:27;9.80;99.90
5848;DHT22;8756;49.29324300;8.70599800;2022-12-29T16:06:08;9.80;99.90
5848;DHT22;8756;49.29324300;8.70599800;2022-12-29T16:09:02;9.70;99.90
5848;DHT22;8756;49.29324300;8.70599800;2022-12-29T16:11:38;9.70;99.90
5848;DHT22;8756;49.29324300;8.70599800;2022-12-29T16:14:32;9.60;99.90
5848;DHT22;8756;49.29324300;8.70599800;2022-12-29T16:17:03;9.60;99.90
5848;DHT22;8756;49.29324300;8.70599800;2022-12-29T16:19:35;9.60;99.90
5848;DHT22;8756;49.29324300;8.70599800;2022-12-29T16:22:14;9.60;99.90
5848;DHT22;8756;49.29324300;8.70599800;2022-12-29T16:25:19;9.60;99.90
5848;DHT22;8756;49.29324300;8.70599800;2022-12-29T16:28:00;9.60;99.90
5848;DHT22;8756;49.29324300;8.70599800;2022-12-29T16:30:32;9.70;99.90
5848;DHT22;8756;49.29324300;8.70599800;2022-12-29T16:33:01;9.70;99.90